Time;durP1;ratioP1;P1;durP2;ratioP2;P2;SDS_P1;SDS_P2;PMS_P1;PMS_P2;Temp;Humidity;BMP_temperature;BMP_pressure;BME280_temperature;BME280_humidity;BME280_pressure;Samples;Min_cycle;Max_cycle;Signal;HPM_P1;HPM_P2
2023/06/26 00:03:31;;;;;;;6.15;5.65;;;;;;;25.45;43.38;100011.25;10355200;28;20058;-67
2023/06/26 00:08:33;;;;;;;6.28;5.43;;;;;;;25.33;43.58;99998.38;10354412;28;20045;-66
2023/06/26 00:13:34;;;;;;;6.40;5.60;;;;;;;25.30;43.89;99996.09;10357875;28;20195;-65
2023/06/26 00:18:36;;;;;;;6.65;6.07;;;;;;;25.24;43.89;99997.78;10350558;28;20439;-66
2023/06/26 00:23:37;;;;;;;7.35;6.25;;;;;;;25.21;44.57;99997.44;10354162;28;20056;-66
2023/06/26 00:28:40;;;;;;;7.40;5.78;;;;;;;25.15;44.40;99995.63;10351269;28;20558;-67
2023/06/26 00:33:42;;;;;;;6.05;5.47;;;;;;;25.07;45.03;99991.28;10342142;28;20467;-64
2023/06/26 00:38:43;;;;;;;6.05;5.40;;;;;;;25.02;45.24;99993.84;10355787;28;20065;-66
2023/06/26 00:43:45;;;;;;;6.90;5.40;;;;;;;24.94;45.85;99992.25;10356388;28;20045;-67
2023/06/26 00:48:48;;;;;;;6.50;5.85;;;;;;;24.88;45.61;99993.16;10352926;28;20054;-66
2023/06/26 00:53:49;;;;;;;7.25;5.93;;;;;;;24.75;46.01;99982.41;10352601;28;20388;-67
2023/06/26 00:58:51;;;;;;;6.30;5.78;;;;;;;24.76;46.45;99993.06;10351206;28;20059;-67
2023/06/26 01:03:53;;;;;;;6.40;5.90;;;;;;;24.72;46.46;99986.38;10347586;28;20057;-68
2023/06/26 01:08:55;;;;;;;6.65;6.05;;;;;;;24.59;47.35;99979.19;10358515;28;20084;-67
2023/06/26 01:14:00;;;;;;;7.20;6.28;;;;;;;24.56;47.65;99979.59;10364309;28;20498;-65
2023/06/26 01:19:04;;;;;;;7.00;6.28;;;;;;;24.48;47.68;99982.59;10359302;28;20050;-65
2023/06/26 01:24:27;;;;;;;6.22;5.65;;;;;;;24.38;48.12;99976.81;10361815;28;20121;-67
2023/06/26 01:29:30;;;;;;;6.43;5.85;;;;;;;24.35;48.31;99975.38;10356891;28;20042;-65
2023/06/26 01:34:32;;;;;;;6.82;6.28;;;;;;;24.29;48.39;99968.06;10359689;28;20397;-66
2023/06/26 01:39:34;;;;;;;7.05;6.40;;;;;;;24.24;48.58;99966.03;10350080;28;20085;-67
2023/06/26 01:44:43;;;;;;;6.53;5.95;;;;;;;24.21;48.82;99966.47;10347978;28;20496;-67
2023/06/26 01:50:02;;;;;;;7.00;6.40;;;;;;;24.14;49.35;99965.66;10351430;28;20523;-67
2023/06/26 01:55:33;;;;;;;7.68;6.97;;;;;;;24.09;49.34;99968.22;10359379;28;20049;-65
2023/06/26 02:00:35;;;;;;;7.05;6.45;;;;;;;24.01;49.41;99958.47;10341033;28;20045;-66
2023/06/26 02:05:37;;;;;;;6.85;6.20;;;;;;;23.96;49.36;99953.69;10359699;28;20064;-66
2023/06/26 02:10:39;;;;;;;7.03;6.43;;;;;;;23.91;49.72;99956.19;10340677;28;20137;-66
2023/06/26 02:15:41;;;;;;;7.10;6.45;;;;;;;23.83;50.04;99948.28;10356992;28;20443;-66
2023/06/26 02:20:43;;;;;;;7.00;6.30;;;;;;;23.82;50.10;99960.19;10360477;28;20488;-66
2023/06/26 02:25:45;;;;;;;6.30;5.80;;;;;;;23.73;50.34;99953.38;10336646;28;20560;-65
2023/06/26 02:30:46;;;;;;;7.15;6.45;;;;;;;23.71;50.66;99960.91;10356451;28;20130;-66
2023/06/26 02:35:50;;;;;;;7.90;7.20;;;;;;;23.67;50.29;99965.09;10358039;28;20045;-67
2023/06/26 02:40:51;;;;;;;6.90;6.20;;;;;;;23.62;51.03;99957.59;10354794;28;20730;-66
2023/06/26 02:45:52;;;;;;;7.30;6.60;;;;;;;23.54;50.97;99965.97;10357772;28;20488;-67
2023/06/26 02:50:54;;;;;;;6.30;5.80;;;;;;;23.46;51.41;99964.34;10357316;28;20140;-67
2023/06/26 02:55:55;;;;;;;7.65;6.95;;;;;;;23.44;51.42;99959.13;10353158;28;20455;-66
2023/06/26 03:00:57;;;;;;;6.97;6.38;;;;;;;23.40;51.77;99962.50;10362013;28;20057;-67
2023/06/26 03:05:58;;;;;;;7.57;6.88;;;;;;;23.35;51.71;99956.88;10351311;28;20138;-67
2023/06/26 03:11:00;;;;;;;6.75;6.07;;;;;;;23.28;52.24;99948.75;10352726;28;20829;-67
2023/06/26 03:16:02;;;;;;;7.35;6.60;;;;;;;23.21;52.59;99956.94;10358164;28;20272;-66
2023/06/26 03:21:04;;;;;;;7.63;6.53;;;;;;;23.18;52.50;99948.38;10357376;28;20420;-67
2023/06/26 03:26:06;;;;;;;7.97;7.28;;;;;;;23.09;52.75;99942.34;10354776;28;20060;-67
2023/06/26 03:31:07;;;;;;;7.38;6.72;;;;;;;23.07;52.90;99942.50;10339686;28;20148;-66
2023/06/26 03:36:09;;;;;;;8.88;6.55;;;;;;;23.04;52.79;99945.66;10357886;28;20053;-66
2023/06/26 03:41:10;;;;;;;7.30;6.57;;;;;;;22.95;53.48;99939.66;10358788;28;20061;-66
2023/06/26 03:46:12;;;;;;;7.57;6.97;;;;;;;22.95;54.20;99942.38;10338827;28;20342;-66
2023/06/26 03:51:14;;;;;;;7.90;7.20;;;;;;;22.87;54.06;99944.47;10355247;28;20056;-65
2023/06/26 03:56:16;;;;;;;8.30;7.43;;;;;;;22.83;54.82;99938.59;10353476;28;20045;-66
2023/06/26 04:01:17;;;;;;;6.95;6.40;;;;;;;22.81;54.60;99946.13;10356749;28;20633;-66
2023/06/26 04:06:19;;;;;;;8.10;7.30;;;;;;;22.80;55.38;99949.88;10340021;28;20050;-66
2023/06/26 04:11:20;;;;;;;8.65;7.78;;;;;;;22.78;55.77;99952.00;10352483;28;20128;-66
2023/06/26 04:16:25;;;;;;;7.68;6.97;;;;;;;22.74;55.71;99961.59;10355562;28;20071;-67
2023/06/26 04:21:26;;;;;;;9.20;7.50;;;;;;;22.66;55.00;99949.06;10356490;28;20057;-68
2023/06/26 04:26:28;;;;;;;8.43;7.60;;;;;;;22.66;55.51;99959.94;10354009;28;20523;-66
2023/06/26 04:31:29;;;;;;;8.88;7.75;;;;;;;22.58;55.59;99955.56;10351938;28;20077;-67
2023/06/26 04:36:33;;;;;;;7.78;7.15;;;;;;;22.57;55.68;99953.06;10352675;28;20069;-66
2023/06/26 04:41:34;;;;;;;9.15;8.27;;;;;;;22.54;56.77;99956.19;10343440;28;20513;-65
2023/06/26 04:46:41;;;;;;;8.43;7.63;;;;;;;22.56;56.60;99960.38;10357535;28;20510;-66
2023/06/26 04:51:42;;;;;;;8.60;7.68;;;;;;;22.53;56.11;99949.09;10354514;28;20052;-66
2023/06/26 04:56:46;;;;;;;8.02;7.30;;;;;;;22.59;56.83;99965.38;10357275;28;20537;-67
2023/06/26 05:01:48;;;;;;;11.10;7.80;;;;;;;22.59;56.57;99957.25;10355007;28;20524;-66
2023/06/26 05:06:49;;;;;;;8.75;7.95;;;;;;;22.57;56.48;99950.34;10352526;28;20150;-66
2023/06/26 05:11:51;;;;;;;9.27;8.38;;;;;;;22.63;57.06;99954.09;10333843;28;20057;-66
2023/06/26 05:16:52;;;;;;;11.38;8.18;;;;;;;22.64;56.58;99953.03;10340355;28;20086;-67
2023/06/26 05:21:55;;;;;;;11.80;7.88;;;;;;;22.68;56.33;99957.00;10340482;28;20056;-67
2023/06/26 05:26:57;;;;;;;8.73;7.85;;;;;;;22.79;55.84;99956.38;10344634;28;20084;-69
2023/06/26 05:31:59;;;;;;;9.70;7.50;;;;;;;22.86;55.66;99965.31;10340660;28;20068;-66
2023/06/26 05:37:01;;;;;;;10.83;6.70;;;;;;;22.94;54.09;99950.72;10341609;28;20054;-66
2023/06/26 05:42:03;;;;;;;8.27;6.82;;;;;;;23.02;53.55;99952.38;10341773;28;20603;-66
2023/06/26 05:47:05;;;;;;;8.85;8.05;;;;;;;23.03;52.86;99959.44;10348087;28;20054;-65
2023/06/26 05:52:07;;;;;;;8.35;7.18;;;;;;;23.09;52.55;99950.47;10349926;28;20045;-67
2023/06/26 05:57:09;;;;;;;7.10;6.40;;;;;;;23.18;52.22;99956.50;10353031;28;20049;-66
2023/06/26 06:02:11;;;;;;;7.68;6.90;;;;;;;23.34;51.69;99963.34;10348462;28;20519;-66
2023/06/26 06:07:13;;;;;;;8.60;7.57;;;;;;;23.40;51.51;99954.34;10348127;28;20057;-67
2023/06/26 06:12:14;;;;;;;10.00;8.95;;;;;;;23.48;51.27;99945.97;10353533;28;21920;-66
2023/06/26 06:17:22;;;;;;;8.73;7.82;;;;;;;23.64;51.14;99950.91;10349267;28;20172;-67
2023/06/26 06:22:23;;;;;;;6.93;6.32;;;;;;;23.77;51.12;99960.03;10346451;28;20131;-67
2023/06/26 06:27:25;;;;;;;7.70;7.07;;;;;;;23.92;51.04;99957.88;10346050;28;20061;-66
2023/06/26 06:32:26;;;;;;;9.93;7.05;;;;;;;24.04;50.04;99940.88;10341954;28;20049;-65
2023/06/26 06:37:29;;;;;;;10.63;7.60;;;;;;;24.16;49.06;99950.00;10330581;28;20064;-68
2023/06/26 06:42:30;;;;;;;6.73;6.13;;;;;;;24.26;48.99;99947.63;10345776;28;20091;-65
2023/06/26 06:47:32;;;;;;;7.63;6.40;;;;;;;24.32;49.23;99935.84;10347411;28;20292;-65
2023/06/26 06:52:38;;;;;;;7.05;6.43;;;;;;;24.45;48.90;99939.50;10342663;28;20139;-69
2023/06/26 06:57:40;;;;;;;6.90;6.30;;;;;;;24.57;48.57;99945.88;10348024;28;20570;-67
2023/06/26 07:02:45;;;;;;;8.20;6.95;;;;;;;24.56;48.13;99927.06;10327115;28;20165;-66
2023/06/26 07:07:47;;;;;;;7.18;6.47;;;;;;;24.74;48.18;99948.06;10350441;28;20062;-66
2023/06/26 07:12:48;;;;;;;7.93;5.78;;;;;;;24.88;47.32;99941.44;10347144;28;20057;-66
2023/06/26 07:17:50;;;;;;;10.85;6.72;;;;;;;24.88;46.77;99944.16;10345297;28;20052;-67
2023/06/26 07:22:52;;;;;;;7.10;6.40;;;;;;;24.95;46.55;99944.94;10341952;28;20091;-66
2023/06/26 07:27:54;;;;;;;7.05;6.18;;;;;;;25.00;46.58;99934.19;10349841;28;20064;-66
2023/06/26 07:32:55;;;;;;;8.05;6.35;;;;;;;25.21;45.68;99941.06;10367622;28;20053;-66
2023/06/26 07:37:58;;;;;;;5.97;5.35;;;;;;;25.34;46.18;99948.28;10345601;28;20103;-65
2023/06/26 07:42:59;;;;;;;8.23;5.80;;;;;;;25.59;45.85;99947.31;10349641;28;20116;-66
2023/06/26 07:48:01;;;;;;;6.80;5.25;;;;;;;25.84;45.11;99949.09;10332765;28;20511;-66
2023/06/26 07:53:05;;;;;;;7.85;5.88;;;;;;;25.93;44.86;99940.34;10331731;28;20064;-66
2023/06/26 07:58:07;;;;;;;6.55;5.28;;;;;;;26.09;45.07;99936.16;10346700;28;21204;-66
2023/06/26 08:03:08;;;;;;;8.10;5.40;;;;;;;26.14;44.05;99918.25;10348243;28;20152;-66
2023/06/26 08:08:26;;;;;;;7.38;6.32;;;;;;;26.10;42.95;99934.25;10343775;28;20061;-66
2023/06/26 08:13:27;;;;;;;8.18;6.35;;;;;;;26.06;43.03;99923.00;10350167;28;20045;-67
2023/06/26 08:18:29;;;;;;;7.05;6.00;;;;;;;26.40;43.47;99930.63;10344481;28;20046;-66
2023/06/26 08:23:31;;;;;;;6.85;6.15;;;;;;;26.50;41.86;99927.28;10341726;28;20136;-65
2023/06/26 08:28:33;;;;;;;;;;;;;;;26.49;42.24;99926.47;10345563;28;20048;-67
2023/06/26 08:33:34;;;;;;;6.53;5.85;;;;;;;26.69;41.98;99937.06;10345753;28;19928;-65
2023/06/26 08:38:36;;;;;;;5.35;4.85;;;;;;;26.87;41.97;99929.81;10338358;28;20058;-67
2023/06/26 08:43:37;;;;;;;6.03;5.45;;;;;;;26.89;41.71;99931.25;10348778;28;20374;-66
2023/06/26 08:48:41;;;;;;;6.35;5.75;;;;;;;26.80;41.49;99944.44;10335487;28;20118;-68
2023/06/26 08:53:51;;;;;;;5.50;4.40;;;;;;;26.99;41.33;99947.00;10343721;28;20057;-67
2023/06/26 08:58:54;;;;;;;5.47;4.68;;;;;;;27.21;41.22;99943.66;10348525;28;20546;-67
2023/06/26 09:03:55;;;;;;;6.20;5.43;;;;;;;27.43;41.27;99950.16;10344074;28;20061;-68
2023/06/26 09:08:56;;;;;;;6.78;5.53;;;;;;;27.75;41.17;99948.88;10323687;28;20542;-66
2023/06/26 09:13:59;;;;;;;6.13;5.38;;;;;;;27.85;41.03;99947.16;10345354;28;20052;-65
2023/06/26 09:19:01;;;;;;;7.97;5.20;;;;;;;27.90;40.69;99942.84;10341504;28;20045;-67
2023/06/26 09:24:03;;;;;;;5.43;4.88;;;;;;;28.21;40.69;99944.25;10341962;28;20052;-68
2023/06/26 09:29:05;;;;;;;5.50;4.90;;;;;;;28.42;39.86;99941.84;10347213;28;20064;-64
2023/06/26 09:34:06;;;;;;;6.03;5.53;;;;;;;28.55;40.30;99947.81;10354988;28;20140;-66
2023/06/26 09:39:10;;;;;;;6.93;5.43;;;;;;;28.95;39.55;99951.44;10349914;28;20845;-67
2023/06/26 09:44:14;;;;;;;5.75;4.68;;;;;;;29.17;39.22;99962.41;10351891;28;20106;-68
2023/06/26 09:49:15;;;;;;;5.80;4.72;;;;;;;29.13;38.94;99953.03;10335883;28;20060;-68
2023/06/26 09:54:19;;;;;;;5.17;4.77;;;;;;;29.51;38.03;99959.56;10340018;28;20377;-67
2023/06/26 09:59:21;;;;;;;6.97;4.38;;;;;;;29.56;38.01;99962.38;10352393;28;20045;-68
2023/06/26 10:04:22;;;;;;;5.03;4.53;;;;;;;29.60;37.43;99955.28;10338531;28;20407;-67
2023/06/26 10:09:24;;;;;;;4.67;4.17;;;;;;;29.40;38.23;99960.53;10346272;28;20293;-67
2023/06/26 10:14:41;;;;;;;5.03;3.97;;;;;;;29.83;38.49;99961.59;10351520;28;20051;-66
2023/06/26 10:19:45;;;;;;;4.78;4.35;;;;;;;30.11;37.84;99962.41;10352340;28;20053;-68
2023/06/26 10:24:49;;;;;;;5.05;4.30;;;;;;;29.81;38.34;99977.47;10340793;28;20049;-69
2023/06/26 10:29:56;;;;;;;4.97;4.10;;;;;;;29.70;38.29;99978.44;10333465;28;20060;-67
2023/06/26 10:34:58;;;;;;;4.93;4.53;;;;;;;29.44;38.94;99969.91;10351223;28;20091;-68
2023/06/26 10:39:59;;;;;;;5.13;4.63;;;;;;;29.52;38.95;99963.97;10349416;28;20675;-67
2023/06/26 10:45:28;;;;;;;5.90;4.20;;;;;;;29.68;38.57;99969.63;10354215;28;20053;-67
2023/06/26 10:50:31;;;;;;;5.88;3.97;;;;;;;29.78;38.96;99953.28;10348537;28;20364;-67
2023/06/26 10:55:32;;;;;;;4.40;4.00;;;;;;;30.12;37.53;99959.41;10331744;28;20522;-68
2023/06/26 11:00:34;;;;;;;5.38;4.53;;;;;;;30.43;36.37;99976.19;10349018;28;20148;-67
2023/06/26 11:05:36;;;;;;;4.30;3.90;;;;;;;30.11;36.10;99978.88;10355311;28;20093;-67
2023/06/26 11:10:52;;;;;;;7.20;5.10;;;;;;;29.85;36.09;99986.84;10336791;28;20061;-67
2023/06/26 11:15:56;;;;;;;4.30;3.90;;;;;;;29.92;36.84;99982.00;10349443;28;20532;-67
2023/06/26 11:21:06;;;;;;;4.45;4.05;;;;;;;30.15;36.14;99964.38;10331021;28;20048;-66
2023/06/26 11:26:14;;;;;;;7.07;4.90;;;;;;;30.40;36.04;99982.19;10340190;28;20057;-72
2023/06/26 11:31:26;;;;;;;4.82;4.35;;;;;;;30.41;36.11;99977.53;10376132;28;20057;-68
2023/06/26 11:36:29;;;;;;;5.70;3.90;;;;;;;30.45;35.98;99990.47;10348831;28;20152;-68
2023/06/26 11:41:32;;;;;;;5.25;4.68;;;;;;;30.33;35.62;99989.78;10347097;28;20053;-66
2023/06/26 11:46:37;;;;;;;4.93;4.53;;;;;;;30.51;36.39;99999.56;10333882;28;20211;-66
2023/06/26 11:51:40;;;;;;;6.32;4.35;;;;;;;30.74;36.31;99978.31;10345801;28;20071;-66
2023/06/26 11:56:41;;;;;;;4.28;3.85;;;;;;;30.58;36.59;99978.22;10347478;28;20394;-67
2023/06/26 12:01:46;;;;;;;6.30;4.60;;;;;;;30.52;35.91;99983.91;10345617;28;20057;-67
2023/06/26 12:06:52;;;;;;;4.55;4.15;;;;;;;30.76;35.99;99978.88;10346609;28;20059;-67
2023/06/26 12:11:55;;;;;;;7.50;4.63;;;;;;;30.59;35.49;99979.84;10347255;28;20058;-68
2023/06/26 12:17:04;;;;;;;5.10;4.32;;;;;;;30.35;36.40;99989.53;10347739;28;20057;-68
2023/06/26 12:22:07;;;;;;;4.75;4.13;;;;;;;30.43;35.89;99980.81;10347793;28;20049;-67
2023/06/26 12:27:10;;;;;;;4.63;4.22;;;;;;;30.48;36.13;99987.19;10343679;28;20073;-67
2023/06/26 12:32:12;;;;;;;5.63;3.92;;;;;;;30.36;36.54;99999.41;10334996;28;20060;-67
2023/06/26 12:37:14;;;;;;;5.45;4.22;;;;;;;30.57;37.11;99993.03;10351039;28;20056;-68
2023/06/26 12:42:20;;;;;;;5.07;3.97;;;;;;;30.37;37.35;99992.81;10351075;28;20092;-68
2023/06/26 12:47:26;;;;;;;5.47;4.45;;;;;;;30.65;37.14;99989.78;10347034;28;20522;-69
2023/06/26 12:52:29;;;;;;;5.38;4.20;;;;;;;30.67;37.60;99998.59;10351878;28;20331;-67
2023/06/26 12:57:30;;;;;;;4.27;3.87;;;;;;;30.66;37.38;99999.69;10333000;28;20166;-67
2023/06/26 13:02:31;;;;;;;6.50;4.90;;;;;;;30.33;37.57;100007.06;10347505;28;21381;-68
2023/06/26 13:07:33;;;;;;;5.78;4.43;;;;;;;29.82;38.27;100003.00;10347987;28;20115;-67
2023/06/26 13:12:35;;;;;;;5.45;4.55;;;;;;;30.04;38.25;100017.50;10345804;28;20054;-67
2023/06/26 13:17:36;;;;;;;4.55;3.80;;;;;;;30.14;37.92;100014.03;10334190;28;20579;-66
2023/06/26 13:22:38;;;;;;;4.70;4.20;;;;;;;30.03;37.91;100015.03;10345997;28;20099;-66
2023/06/26 13:27:39;;;;;;;4.77;3.60;;;;;;;29.89;37.80;100009.09;10341041;28;20055;-67
2023/06/26 13:32:41;;;;;;;5.70;3.47;;;;;;;30.00;37.87;99999.91;10341819;28;20061;-67
2023/06/26 13:37:42;;;;;;;7.43;4.15;;;;;;;30.07;37.17;100013.41;10333358;28;20103;-67
2023/06/26 13:42:44;;;;;;;6.00;3.13;;;;;;;29.90;37.46;100017.06;10349099;28;20504;-66
2023/06/26 13:47:46;;;;;;;3.38;2.85;;;;;;;30.00;37.02;100021.84;10332195;28;20044;-66
2023/06/26 13:52:47;;;;;;;4.13;3.40;;;;;;;30.06;37.00;100020.00;10344827;28;20063;-65
2023/06/26 13:57:49;;;;;;;6.93;3.10;;;;;;;29.91;36.73;100028.88;10334922;28;21405;-66
2023/06/26 14:02:51;;;;;;;4.40;3.07;;;;;;;29.61;36.91;100032.91;10338213;28;20053;-67
2023/06/26 14:07:54;;;;;;;;;;;;;;;29.73;36.79;100038.25;10343816;28;20065;-67
2023/06/26 14:12:57;;;;;;;3.42;2.40;;;;;;;29.87;36.54;100055.16;10349280;28;19933;-67
2023/06/26 14:17:59;;;;;;;3.53;2.70;;;;;;;29.88;35.74;100056.84;10347311;28;20058;-67
2023/06/26 14:23:00;;;;;;;;;;;;;;;29.67;35.20;100056.56;10334518;28;20052;-67
2023/06/26 14:28:02;;;;;;;2.45;1.73;;;;;;;29.58;34.74;100061.66;10353963;28;19925;-67
2023/06/26 14:33:03;;;;;;;3.10;1.77;;;;;;;29.23;34.95;100060.09;10347501;28;20060;-67
2023/06/26 14:38:04;;;;;;;5.00;1.73;;;;;;;29.05;35.46;100052.09;10351302;28;20262;-67
2023/06/26 14:43:06;;;;;;;5.85;1.63;;;;;;;29.05;34.75;100050.19;10351501;28;21001;-66
2023/06/26 14:48:08;;;;;;;2.63;1.50;;;;;;;29.24;34.86;100055.44;10337033;28;20180;-66
2023/06/26 14:53:10;;;;;;;4.10;1.47;;;;;;;29.15;34.03;100055.00;10351067;28;20053;-67
2023/06/26 14:58:12;;;;;;;2.40;1.40;;;;;;;29.14;34.03;100050.63;10352554;28;20053;-66
2023/06/26 15:03:13;;;;;;;4.63;1.73;;;;;;;28.78;33.11;100060.16;10330298;28;20049;-67
2023/06/26 15:08:14;;;;;;;6.20;1.87;;;;;;;28.64;33.42;100070.63;10348708;28;20053;-66
2023/06/26 15:13:16;;;;;;;3.00;1.30;;;;;;;28.55;33.81;100071.00;10349365;28;20052;-69
2023/06/26 15:18:17;;;;;;;2.97;1.23;;;;;;;28.47;33.25;100074.13;10355661;28;20534;-67
2023/06/26 15:23:19;;;;;;;4.40;1.20;;;;;;;28.38;33.50;100067.41;10378460;28;21549;-66
2023/06/26 15:28:21;;;;;;;3.85;1.40;;;;;;;28.18;33.20;100082.38;10344457;28;20052;-68
2023/06/26 15:33:23;;;;;;;6.80;1.53;;;;;;;27.95;32.70;100074.22;10359313;28;20052;-68
2023/06/26 15:38:24;;;;;;;5.28;1.38;;;;;;;27.95;32.69;100076.94;10365635;28;20366;-68
2023/06/26 15:43:25;;;;;;;2.90;1.27;;;;;;;28.03;32.83;100093.03;10349693;28;20570;-68
2023/06/26 15:48:28;;;;;;;3.17;1.38;;;;;;;28.20;32.63;100093.06;10355557;28;20049;-66
2023/06/26 15:53:38;;;;;;;3.55;1.20;;;;;;;28.02;32.63;100105.03;10343154;28;20065;-66
2023/06/26 15:58:45;;;;;;;4.88;1.63;;;;;;;27.73;32.34;100094.03;10363042;28;20304;-67
2023/06/26 16:03:46;;;;;;;3.25;1.27;;;;;;;27.48;32.56;100095.13;10355871;28;20056;-65
2023/06/26 16:08:48;;;;;;;3.37;1.50;;;;;;;27.52;32.85;100087.28;10358908;28;20076;-67
2023/06/26 16:13:51;;;;;;;2.95;1.45;;;;;;;27.65;31.83;100102.59;10338513;28;20052;-66
2023/06/26 16:18:53;;;;;;;3.17;1.13;;;;;;;27.57;32.49;100111.16;10355013;28;20057;-66
2023/06/26 16:23:54;;;;;;;4.13;1.45;;;;;;;27.48;31.26;100114.25;10362029;28;20057;-66
2023/06/26 16:28:56;;;;;;;3.08;1.20;;;;;;;27.11;31.42;100108.16;10352506;28;20139;-66
2023/06/26 16:33:57;;;;;;;3.35;1.10;;;;;;;27.10;31.74;100115.53;10352174;28;20042;-66
2023/06/26 16:39:00;;;;;;;1.60;1.05;;;;;;;26.89;32.10;100127.00;10352647;28;20120;-66
2023/06/26 16:44:02;;;;;;;3.38;1.80;;;;;;;26.75;32.02;100132.69;10346460;28;20064;-66
2023/06/26 16:49:04;;;;;;;2.05;1.13;;;;;;;26.78;31.80;100113.13;10354555;28;20065;-66
2023/06/26 16:54:05;;;;;;;2.97;1.20;;;;;;;26.85;32.10;100109.44;10343386;28;20156;-67
2023/06/26 16:59:07;;;;;;;2.80;0.93;;;;;;;26.76;32.21;100128.88;10355642;28;20049;-67
2023/06/26 17:04:08;;;;;;;5.45;1.23;;;;;;;26.59;32.53;100133.34;10351118;28;20135;-66
2023/06/26 17:09:10;;;;;;;2.25;1.08;;;;;;;26.61;33.05;100144.84;10352948;28;20424;-66
2023/06/26 17:14:11;;;;;;;4.10;1.48;;;;;;;26.50;33.05;100141.00;10348027;28;20076;-66
2023/06/26 17:19:13;;;;;;;4.05;1.45;;;;;;;26.61;33.93;100153.03;10357126;28;20064;-66
2023/06/26 17:24:14;;;;;;;3.72;1.08;;;;;;;26.41;33.39;100158.78;10339852;28;20659;-67
2023/06/26 17:29:15;;;;;;;11.15;1.15;;;;;;;26.18;33.37;100181.28;10350305;28;20053;-66
2023/06/26 17:34:17;;;;;;;1.90;0.95;;;;;;;26.13;33.56;100175.72;10353331;28;20053;-67
2023/06/26 17:39:19;;;;;;;3.53;1.10;;;;;;;26.13;34.43;100172.97;10351339;28;20132;-67
2023/06/26 17:44:21;;;;;;;2.55;1.02;;;;;;;26.05;33.47;100172.22;10364610;28;20057;-67
2023/06/26 17:49:23;;;;;;;;;;;;;;;25.90;33.78;100190.81;10364791;28;20476;-67
2023/06/26 17:54:26;;;;;;;5.35;1.33;;;;;;;25.85;34.32;100209.75;10358900;28;19925;-66
2023/06/26 17:59:27;;;;;;;4.97;1.00;;;;;;;25.56;34.02;100206.66;10358439;28;20057;-66
2023/06/26 18:04:29;;;;;;;3.30;1.40;;;;;;;25.26;33.69;100212.75;10356746;28;20069;-67
2023/06/26 18:09:30;;;;;;;4.65;1.50;;;;;;;25.15;34.27;100217.03;10357480;28;20045;-66
2023/06/26 18:14:32;;;;;;;3.95;1.20;;;;;;;25.05;33.89;100233.84;10347866;28;20649;-65
2023/06/26 18:19:33;;;;;;;5.97;2.78;;;;;;;25.11;33.98;100237.56;10359374;28;20052;-68
2023/06/26 18:24:34;;;;;;;3.35;1.10;;;;;;;24.99;33.88;100242.88;10360190;28;20049;-66
2023/06/26 18:29:37;;;;;;;4.57;1.17;;;;;;;24.75;34.32;100232.78;10362106;28;20236;-66
2023/06/26 18:34:38;;;;;;;2.83;1.37;;;;;;;24.80;34.46;100249.28;10343299;28;20247;-67
2023/06/26 18:39:40;;;;;;;3.97;1.00;;;;;;;24.63;34.31;100247.06;10357802;28;20061;-65
2023/06/26 18:44:42;;;;;;;3.77;0.80;;;;;;;24.62;34.59;100250.84;10342959;28;20052;-66
2023/06/26 18:49:43;;;;;;;8.18;1.27;;;;;;;24.41;34.31;100259.25;10355050;28;20042;-66
2023/06/26 18:54:44;;;;;;;2.30;0.85;;;;;;;24.38;34.61;100260.53;10363559;28;20077;-66
2023/06/26 18:59:46;;;;;;;5.25;1.40;;;;;;;24.44;34.85;100266.97;10344686;28;20049;-65
2023/06/26 19:04:47;;;;;;;2.65;1.73;;;;;;;24.43;35.39;100263.44;10360768;28;20061;-65
2023/06/26 19:09:49;;;;;;;4.32;0.98;;;;;;;24.41;34.88;100276.44;10366080;28;20072;-67
2023/06/26 19:14:51;;;;;;;3.85;1.45;;;;;;;24.50;35.87;100288.75;10355311;28;20086;-65
2023/06/26 19:19:52;;;;;;;2.70;1.23;;;;;;;24.51;35.56;100292.28;10361494;28;20132;-66
2023/06/26 19:24:54;;;;;;;2.58;0.77;;;;;;;24.22;35.85;100299.91;10357313;28;20112;-66
2023/06/26 19:29:55;;;;;;;6.13;1.35;;;;;;;24.07;36.03;100302.03;10349875;28;20141;-66
2023/06/26 19:34:57;;;;;;;6.13;1.15;;;;;;;24.18;35.95;100304.09;10357956;28;20057;-67
2023/06/26 19:39:58;;;;;;;4.20;1.65;;;;;;;24.11;36.06;100311.41;10353355;28;20115;-68
2023/06/26 19:45:01;;;;;;;3.08;1.17;;;;;;;24.07;35.96;100329.22;10360327;28;20061;-67
2023/06/26 19:50:03;;;;;;;2.70;1.13;;;;;;;23.74;36.60;100332.75;10364791;28;20068;-67
2023/06/26 19:55:05;;;;;;;3.97;1.52;;;;;;;23.85;36.97;100337.56;10357110;28;20057;-67
2023/06/26 20:00:07;;;;;;;2.35;1.10;;;;;;;23.81;36.50;100341.75;10358457;28;20080;-67
2023/06/26 20:05:10;;;;;;;4.95;1.33;;;;;;;23.67;36.20;100345.50;10360086;28;20064;-65
2023/06/26 20:10:12;;;;;;;2.95;1.00;;;;;;;23.79;36.37;100343.81;10351880;28;20487;-67
2023/06/26 20:15:13;;;;;;;2.75;1.20;;;;;;;23.65;36.04;100346.53;10351447;28;20132;-67
2023/06/26 20:20:15;;;;;;;5.05;0.90;;;;;;;23.56;36.09;100361.34;10343593;28;20659;-68
2023/06/26 20:25:16;;;;;;;4.45;0.88;;;;;;;23.43;36.50;100366.75;10344277;28;20488;-67
2023/06/26 20:30:18;;;;;;;6.97;1.10;;;;;;;23.55;36.47;100381.41;10345985;28;20051;-67
2023/06/26 20:35:20;;;;;;;3.38;0.95;;;;;;;23.54;36.95;100370.75;10359388;28;20700;-67
2023/06/26 20:40:22;;;;;;;5.50;1.38;;;;;;;23.63;36.64;100389.38;10357025;28;20496;-67
2023/06/26 20:45:25;;;;;;;4.20;0.88;;;;;;;23.45;36.85;100395.41;10359326;28;20125;-66
2023/06/26 20:50:27;;;;;;;3.70;1.08;;;;;;;23.46;36.57;100388.06;10346489;28;20060;-66
2023/06/26 20:55:28;;;;;;;1.48;1.02;;;;;;;23.33;37.48;100385.31;10356582;28;20053;-67
2023/06/26 21:00:30;;;;;;;4.40;1.00;;;;;;;23.44;37.25;100382.84;10365535;28;20056;-69
2023/06/26 21:05:31;;;;;;;2.97;1.27;;;;;;;23.46;36.92;100385.34;10358191;28;20156;-68
2023/06/26 21:10:33;;;;;;;2.92;1.10;;;;;;;23.40;37.37;100383.47;10376373;28;20073;-67
2023/06/26 21:15:34;;;;;;;4.68;1.98;;;;;;;23.22;37.45;100386.75;10377653;28;20042;-68
2023/06/26 21:20:35;;;;;;;3.92;1.08;;;;;;;23.04;37.49;100395.41;10376012;28;20144;-67
2023/06/26 21:25:37;;;;;;;5.53;1.75;;;;;;;23.08;37.72;100397.53;10386643;28;20057;-67
2023/06/26 21:30:39;;;;;;;4.73;1.20;;;;;;;22.81;37.81;100415.56;10368689;28;20468;-67
2023/06/26 21:35:42;;;;;;;2.38;0.90;;;;;;;22.78;39.15;100413.25;10369337;28;20076;-66
2023/06/26 21:40:45;;;;;;;2.42;1.00;;;;;;;22.98;38.37;100410.63;10372817;28;20077;-66
2023/06/26 21:45:48;;;;;;;2.28;0.80;;;;;;;22.93;37.36;100423.97;10366943;28;20095;-67
2023/06/26 21:50:49;;;;;;;;;;;;;;;22.87;38.09;100436.47;10374427;28;20204;-66
2023/06/26 21:55:51;;;;;;;4.15;1.05;;;;;;;22.84;38.46;100445.00;10375149;28;19979;-65
2023/06/26 22:00:52;;;;;;;1.73;0.70;;;;;;;22.64;38.17;100438.59;10356055;28;20598;-66
2023/06/26 22:05:56;;;;;;;1.98;0.95;;;;;;;22.73;37.99;100451.84;10365650;28;20111;-66
2023/06/26 22:10:57;;;;;;;2.95;0.88;;;;;;;22.84;38.05;100453.16;10354011;28;20812;-65
2023/06/26 22:15:59;;;;;;;3.03;1.00;;;;;;;22.88;38.76;100454.44;10362874;28;20081;-66
2023/06/26 22:21:00;;;;;;;3.25;0.95;;;;;;;22.89;38.07;100456.09;10362275;28;20156;-65
2023/06/26 22:26:02;;;;;;;3.30;1.10;;;;;;;22.85;38.65;100457.56;10357948;28;20056;-66
2023/06/26 22:31:04;;;;;;;4.45;1.08;;;;;;;22.84;38.54;100466.72;10358075;28;20682;-66
2023/06/26 22:36:05;;;;;;;1.83;0.93;;;;;;;22.70;38.79;100464.94;10359916;28;20045;-65
2023/06/26 22:41:07;;;;;;;3.60;1.10;;;;;;;22.77;38.91;100474.84;10361944;28;20546;-66
2023/06/26 22:46:08;;;;;;;3.92;1.05;;;;;;;;;;10365189;28;20057;-66
2023/06/26 22:51:10;;;;;;;2.15;1.25;;;;;;;22.72;38.88;100468.31;10354017;28;20536;-67
2023/06/26 22:56:11;;;;;;;2.60;1.25;;;;;;;22.60;38.88;100473.44;10366237;28;20471;-66
2023/06/26 23:01:13;;;;;;;3.08;1.10;;;;;;;22.56;38.45;100481.16;10332266;28;1073481;-67
2023/06/26 23:06:21;;;;;;;2.10;1.00;;;;;;;22.41;38.55;100474.97;10370014;28;20485;-66
2023/06/26 23:11:22;;;;;;;1.00;0.50;;;;;;;22.38;38.91;100464.50;10370587;28;20080;-65
2023/06/26 23:16:24;;;;;;;1.00;0.55;;;;;;;22.40;38.73;100476.00;10375789;28;20054;-65
2023/06/26 23:21:25;;;;;;;2.20;0.73;;;;;;;22.20;37.88;100473.94;10375812;28;20049;-67